createdAt,value
2023-05-10T00:01:12.361Z,12.40
2023-05-10T00:03:40.238Z,13.60
2023-05-10T00:06:07.283Z,13.10
2023-05-10T00:08:34.169Z,13.90
2023-05-10T00:11:01.366Z,13.10
2023-05-10T00:13:28.355Z,12.30
2023-05-10T00:15:55.354Z,12.40
2023-05-10T00:18:22.262Z,13.40
2023-05-10T00:20:49.934Z,12.40
2023-05-10T00:23:16.824Z,12.00
2023-05-10T00:25:43.690Z,11.40
2023-05-10T00:28:10.595Z,10.50
2023-05-10T00:30:38.140Z,10.30
2023-05-10T00:33:05.053Z,10.60
2023-05-10T00:35:32.001Z,11.10
2023-05-10T00:37:58.834Z,11.30
2023-05-10T00:40:25.746Z,12.00
2023-05-10T00:42:55.651Z,10.90
2023-05-10T00:45:22.670Z,10.40
2023-05-10T00:47:49.668Z,10.40
2023-05-10T00:50:17.988Z,10.50
2023-05-10T00:52:45.232Z,9.90
2023-05-10T00:55:12.265Z,10.80
2023-05-10T00:57:39.516Z,9.20
2023-05-10T01:00:07.035Z,9.60
2023-05-10T01:02:35.612Z,9.30
2023-05-10T01:05:04.782Z,9.00
2023-05-10T01:07:31.764Z,9.80
2023-05-10T01:09:58.751Z,9.40
2023-05-10T01:12:25.727Z,9.60
2023-05-10T01:14:52.652Z,10.10
2023-05-10T01:17:19.620Z,11.00
2023-05-10T01:19:46.528Z,10.70
2023-05-10T01:22:31.750Z,10.30
2023-05-10T01:25:20.823Z,10.00
2023-05-10T01:28:00.046Z,9.10
2023-05-10T01:30:48.590Z,9.20
2023-05-10T01:33:31.769Z,10.20
2023-05-10T01:36:09.520Z,10.10
2023-05-10T01:39:02.981Z,8.90
2023-05-10T01:42:04.632Z,8.80
2023-05-10T01:45:11.172Z,9.50
2023-05-10T01:47:53.988Z,9.40
2023-05-10T01:50:26.042Z,9.30
2023-05-10T01:52:55.844Z,9.00
2023-05-10T01:55:24.468Z,9.40
2023-05-10T01:57:54.329Z,10.10
2023-05-10T02:00:21.233Z,9.10
2023-05-10T02:02:51.693Z,9.30
2023-05-10T02:05:18.793Z,8.80
2023-05-10T02:07:45.767Z,8.30
2023-05-10T02:10:12.902Z,8.80
2023-05-10T02:12:44.885Z,8.80
2023-05-10T02:15:12.889Z,8.90
2023-05-10T02:17:39.898Z,9.40
2023-05-10T02:20:07.492Z,9.40
2023-05-10T02:22:34.450Z,10.10
2023-05-10T02:25:01.330Z,9.90
2023-05-10T02:30:59.088Z,9.10
2023-05-10T02:33:26.804Z,8.90
2023-05-10T02:35:53.684Z,8.30
2023-05-10T02:38:21.926Z,9.30
2023-05-10T02:40:48.873Z,9.50
2023-05-10T02:43:15.971Z,10.30
2023-05-10T02:45:43.311Z,9.60
2023-05-10T02:48:10.192Z,9.60
2023-05-10T02:50:37.114Z,10.20
2023-05-10T02:53:08.346Z,10.20
2023-05-10T02:55:37.881Z,10.20
2023-05-10T02:58:04.958Z,9.10
2023-05-10T03:00:32.339Z,10.30
2023-05-10T03:03:00.417Z,9.10
2023-05-10T03:05:27.929Z,8.50
2023-05-10T03:07:54.851Z,9.90
2023-05-10T03:10:24.060Z,10.00
2023-05-10T03:13:03.688Z,10.10
2023-05-10T03:15:51.808Z,10.20
2023-05-10T03:18:28.539Z,11.40
2023-05-10T03:21:08.037Z,11.30
2023-05-10T03:23:37.043Z,11.30
2023-05-10T03:26:04.481Z,10.90
2023-05-10T03:28:31.861Z,11.20
2023-05-10T03:30:58.937Z,10.30
2023-05-10T03:33:25.874Z,10.60
2023-05-10T03:35:53.112Z,10.50
2023-05-10T03:38:20.028Z,9.10
2023-05-10T03:40:47.061Z,9.70
2023-05-10T03:43:14.015Z,10.50
2023-05-10T03:45:41.044Z,10.80
2023-05-10T03:48:08.169Z,9.80
2023-05-10T03:50:35.164Z,9.90
2023-05-10T03:53:03.456Z,11.30
2023-05-10T03:55:30.550Z,12.00
2023-05-10T03:57:57.883Z,11.50
2023-05-10T04:00:25.994Z,12.10
2023-05-10T04:02:54.039Z,10.10
2023-05-10T04:05:21.151Z,10.10
2023-05-10T04:07:50.409Z,9.10
2023-05-10T04:10:17.836Z,10.50
2023-05-10T04:12:45.188Z,10.60
2023-05-10T04:15:12.177Z,11.40
2023-05-10T04:17:39.175Z,11.50
2023-05-10T04:20:07.470Z,11.20
2023-05-10T04:22:34.394Z,12.80
2023-05-10T04:25:01.361Z,12.10
2023-05-10T04:27:28.227Z,10.60
2023-05-10T04:29:55.292Z,10.40
2023-05-10T04:32:22.194Z,10.60
2023-05-10T04:34:49.173Z,8.00
2023-05-10T04:37:16.159Z,7.50
2023-05-10T04:39:43.064Z,7.30
2023-05-10T04:42:10.158Z,7.60
2023-05-10T04:44:37.412Z,7.90
2023-05-10T04:47:04.466Z,8.10
2023-05-10T04:49:31.306Z,8.10
2023-05-10T04:51:58.203Z,7.50
2023-05-10T04:54:25.191Z,7.80
2023-05-10T04:56:52.137Z,7.90
2023-05-10T04:59:19.524Z,7.50
2023-05-10T05:01:46.447Z,7.30
2023-05-10T05:04:13.358Z,10.40
2023-05-10T05:06:40.272Z,8.50
2023-05-10T05:09:07.126Z,6.50
2023-05-10T05:11:34.342Z,8.30
2023-05-10T05:14:01.426Z,4.90
2023-05-10T05:16:28.441Z,5.30
2023-05-10T05:18:55.407Z,5.00
2023-05-10T05:21:22.687Z,5.20
2023-05-10T05:23:49.776Z,4.90
2023-05-10T05:26:17.229Z,5.30
2023-05-10T05:28:44.278Z,5.00
2023-05-10T05:31:11.388Z,4.60
2023-05-10T05:33:38.392Z,5.30
2023-05-10T05:36:05.942Z,5.40
2023-05-10T05:38:33.149Z,5.20
2023-05-10T05:41:00.014Z,4.50
2023-05-10T05:43:27.361Z,4.50
2023-05-10T05:45:59.176Z,4.70
2023-05-10T05:48:26.292Z,4.00
2023-05-10T05:54:12.694Z,4.60
2023-05-10T05:56:39.647Z,4.60
2023-05-10T05:59:07.129Z,5.00
2023-05-10T06:01:34.186Z,4.60
2023-05-10T06:04:01.269Z,4.40
2023-05-10T06:06:28.861Z,5.20
2023-05-10T06:08:56.027Z,4.90
2023-05-10T06:11:22.964Z,4.60
2023-05-10T06:13:50.513Z,4.00
2023-05-10T06:16:17.385Z,4.20
2023-05-10T06:18:44.320Z,4.50
2023-05-10T06:21:11.222Z,4.30
2023-05-10T06:23:38.168Z,4.30
2023-05-10T06:26:05.118Z,4.10
2023-05-10T06:28:33.317Z,4.30
2023-05-10T06:31:00.772Z,4.70
2023-05-10T06:33:27.693Z,5.00
2023-05-10T06:35:54.597Z,4.00
2023-05-10T06:38:21.474Z,3.60
2023-05-10T06:40:48.489Z,3.90
2023-05-10T06:43:15.344Z,4.50
2023-05-10T06:45:42.315Z,4.80
2023-05-10T06:48:09.417Z,4.80
2023-05-10T06:50:36.377Z,4.80
2023-05-10T06:53:03.359Z,4.70
2023-05-10T06:55:30.386Z,4.60
2023-05-10T06:57:57.431Z,4.90
2023-05-10T07:00:24.509Z,5.50
2023-05-10T07:02:52.306Z,4.90
2023-05-10T07:05:21.439Z,4.10
2023-05-10T07:07:48.590Z,4.20
2023-05-10T07:10:15.635Z,4.20
2023-05-10T07:12:42.616Z,4.40
2023-05-10T07:15:11.262Z,4.20
2023-05-10T07:17:38.961Z,4.40
2023-05-10T07:20:06.618Z,3.60
2023-05-10T07:22:33.603Z,4.10
2023-05-10T07:25:00.502Z,3.90
2023-05-10T07:27:27.503Z,4.50
2023-05-10T07:29:54.531Z,3.80
2023-05-10T07:32:22.550Z,4.00
2023-05-10T07:34:50.571Z,3.70
2023-05-10T07:37:17.657Z,4.00
2023-05-10T07:39:44.539Z,4.10
2023-05-10T07:42:12.340Z,3.90
2023-05-10T07:44:39.264Z,4.10
2023-05-10T07:47:06.278Z,3.90
2023-05-10T07:49:33.153Z,4.20
2023-05-10T07:52:00.177Z,4.00
2023-05-10T07:54:27.700Z,4.20
2023-05-10T07:56:54.653Z,4.20
2023-05-10T07:59:21.551Z,4.60
2023-05-10T08:01:48.399Z,4.80
2023-05-10T08:04:15.285Z,4.30
2023-05-10T08:06:42.350Z,3.80
2023-05-10T08:09:09.680Z,4.00
2023-05-10T08:11:36.706Z,3.30
2023-05-10T08:17:31.766Z,3.30
2023-05-10T08:19:58.660Z,3.40
2023-05-10T08:22:25.720Z,4.10
2023-05-10T08:24:52.555Z,3.70
2023-05-10T08:27:19.471Z,3.30
2023-05-10T08:29:50.012Z,3.30
2023-05-10T08:32:18.401Z,4.00
2023-05-10T08:34:45.449Z,3.50
2023-05-10T08:37:14.591Z,3.90
2023-05-10T08:39:41.943Z,3.70
2023-05-10T08:42:09.516Z,4.30
2023-05-10T08:44:37.448Z,3.70
2023-05-10T08:47:06.036Z,4.30
2023-05-10T08:49:52.405Z,3.70
2023-05-10T08:52:19.320Z,4.70
2023-05-10T08:54:46.156Z,4.30
2023-05-10T08:57:13.102Z,3.80
2023-05-10T08:59:41.320Z,3.70
2023-05-10T09:02:08.336Z,3.80
2023-05-10T09:04:35.457Z,3.80
2023-05-10T09:07:02.482Z,2.90
2023-05-10T09:09:30.757Z,3.70
2023-05-10T09:11:57.637Z,4.00
2023-05-10T09:14:24.888Z,4.00
2023-05-10T09:16:52.029Z,3.90
2023-05-10T09:19:19.868Z,3.90
2023-05-10T09:21:46.712Z,4.10
2023-05-10T09:24:13.602Z,3.70
2023-05-10T09:26:49.960Z,3.50
2023-05-10T09:29:17.830Z,3.90
2023-05-10T09:31:47.964Z,3.80
2023-05-10T09:34:19.308Z,3.90
2023-05-10T09:36:57.373Z,4.50
2023-05-10T09:39:34.152Z,4.00
2023-05-10T09:42:06.460Z,3.80
2023-05-10T09:44:34.008Z,4.10
2023-05-10T09:47:02.134Z,3.40
2023-05-10T09:49:29.126Z,3.40
2023-05-10T09:52:03.822Z,3.50
2023-05-10T09:54:30.951Z,3.20
2023-05-10T09:56:57.903Z,3.30
2023-05-10T09:59:27.342Z,3.30
2023-05-10T10:01:56.868Z,3.40
2023-05-10T10:04:24.026Z,3.60
2023-05-10T10:07:03.904Z,3.20
2023-05-10T10:09:30.918Z,3.70
2023-05-10T10:11:57.880Z,3.60
2023-05-10T10:14:27.729Z,3.10
2023-05-10T10:17:06.797Z,3.40
2023-05-10T10:19:36.889Z,3.70
2023-05-10T10:22:04.260Z,3.90
2023-05-10T10:24:31.258Z,3.80
2023-05-10T10:27:03.416Z,3.80
2023-05-10T10:30:01.920Z,3.40
2023-05-10T10:32:59.628Z,3.80
2023-05-10T10:35:27.034Z,4.10
2023-05-10T10:37:54.058Z,3.70
2023-05-10T10:40:34.862Z,3.60
2023-05-10T10:43:28.161Z,3.50
2023-05-10T10:46:18.710Z,4.20
2023-05-10T10:48:50.520Z,3.20
2023-05-10T10:51:17.750Z,3.60
2023-05-10T10:53:44.712Z,3.30
2023-05-10T10:56:14.777Z,4.10
2023-05-10T10:58:42.210Z,4.20
2023-05-10T11:01:12.443Z,3.40
2023-05-10T11:03:39.439Z,3.90
2023-05-10T11:06:06.500Z,3.30
2023-05-10T11:08:35.722Z,3.30
2023-05-10T11:11:08.255Z,3.60
2023-05-10T11:13:42.464Z,3.50
2023-05-10T11:16:22.753Z,4.00
2023-05-10T11:19:19.303Z,2.90
2023-05-10T11:21:46.171Z,3.10
2023-05-10T11:24:21.969Z,3.70
2023-05-10T11:26:51.267Z,3.00
2023-05-10T11:29:18.200Z,3.60
2023-05-10T11:31:46.457Z,3.30
2023-05-10T11:34:23.756Z,3.70
2023-05-10T11:36:55.036Z,3.30
2023-05-10T11:39:22.743Z,3.40
2023-05-10T11:41:50.510Z,2.90
2023-05-10T11:44:17.430Z,3.20
2023-05-10T11:46:44.602Z,3.00
2023-05-10T11:49:11.709Z,3.80
2023-05-10T11:51:38.602Z,3.30
2023-05-10T11:54:10.573Z,3.10
2023-05-10T11:56:40.992Z,3.50
2023-05-10T11:59:09.131Z,3.80
2023-05-10T12:01:36.422Z,5.00
2023-05-10T12:04:03.641Z,4.10
2023-05-10T12:06:36.593Z,3.60
2023-05-10T12:09:06.849Z,3.80
2023-05-10T12:11:37.650Z,3.60
2023-05-10T12:14:05.866Z,4.20
2023-05-10T12:16:32.911Z,3.80
2023-05-10T12:19:00.932Z,3.30
2023-05-10T12:21:29.932Z,3.60
2023-05-10T12:24:01.373Z,3.60
2023-05-10T12:26:28.938Z,3.30
2023-05-10T12:28:56.136Z,3.70
2023-05-10T12:31:23.107Z,3.50
2023-05-10T12:33:50.580Z,3.80
2023-05-10T12:36:17.610Z,3.50
2023-05-10T12:38:48.903Z,3.50
2023-05-10T12:41:17.635Z,3.60
2023-05-10T12:43:44.767Z,3.60
2023-05-10T12:46:16.438Z,3.40
2023-05-10T12:51:12.839Z,3.30
2023-05-10T12:53:41.809Z,3.00
2023-05-10T12:56:11.233Z,3.70
2023-05-10T12:58:41.783Z,3.20
2023-05-10T13:01:09.557Z,3.20
2023-05-10T13:03:36.393Z,3.40
2023-05-10T13:06:03.538Z,3.30
2023-05-10T13:08:34.431Z,3.20
2023-05-10T13:11:02.683Z,3.60
2023-05-10T13:13:29.665Z,3.70
2023-05-10T13:15:56.502Z,3.50
2023-05-10T13:18:23.473Z,3.10
2023-05-10T13:20:50.828Z,3.00
2023-05-10T13:23:17.826Z,3.40
2023-05-10T13:25:44.865Z,3.30
2023-05-10T13:28:11.771Z,3.20
2023-05-10T13:30:38.675Z,3.60
2023-05-10T13:33:06.641Z,3.30
2023-05-10T13:35:33.625Z,3.10
2023-05-10T13:38:00.797Z,3.30
2023-05-10T13:40:29.281Z,3.20
2023-05-10T13:42:56.208Z,3.40
2023-05-10T13:45:23.086Z,3.50
2023-05-10T13:47:50.220Z,3.40
2023-05-10T13:50:17.946Z,3.90
2023-05-10T13:52:44.817Z,3.90
2023-05-10T13:55:13.519Z,3.50
2023-05-10T13:57:40.375Z,3.80
2023-05-10T14:00:08.014Z,3.90
2023-05-10T14:02:35.044Z,3.80
2023-05-10T14:05:02.401Z,4.20
2023-05-10T14:07:29.246Z,3.70
2023-05-10T14:09:56.124Z,3.90
2023-05-10T14:12:23.016Z,4.30
2023-05-10T14:14:50.003Z,3.70
2023-05-10T14:17:17.271Z,4.20
2023-05-10T14:19:44.315Z,3.90
2023-05-10T14:22:11.364Z,4.10
2023-05-10T14:24:39.061Z,3.90
2023-05-10T14:27:07.066Z,3.70
2023-05-10T14:29:34.030Z,3.40
2023-05-10T14:32:01.144Z,3.80
2023-05-10T14:34:28.141Z,3.70
2023-05-10T14:36:56.311Z,3.60
2023-05-10T14:39:23.947Z,4.00
2023-05-10T14:41:52.577Z,3.30
2023-05-10T14:44:20.542Z,4.10
2023-05-10T14:46:48.419Z,3.90
2023-05-10T14:49:15.289Z,4.20
2023-05-10T14:51:42.515Z,3.90
2023-05-10T14:54:09.390Z,3.80
2023-05-10T14:56:38.333Z,3.80
2023-05-10T14:59:05.410Z,3.50
2023-05-10T15:01:34.017Z,4.10
2023-05-10T15:04:01.730Z,4.00
2023-05-10T15:06:32.965Z,3.70
2023-05-10T15:08:59.886Z,3.80
2023-05-10T15:11:27.019Z,4.00
2023-05-10T15:13:54.320Z,4.40
2023-05-10T15:16:21.215Z,3.40
2023-05-10T15:18:49.460Z,3.70
2023-05-10T15:21:16.417Z,3.60
2023-05-10T15:23:43.250Z,4.10
2023-05-10T15:26:10.160Z,3.80
2023-05-10T15:28:37.210Z,3.40
2023-05-10T15:31:04.919Z,3.90
2023-05-10T15:33:31.927Z,4.00
2023-05-10T15:35:58.839Z,4.20
2023-05-10T15:38:25.686Z,3.40
2023-05-10T15:40:53.835Z,4.40
2023-05-10T15:43:20.775Z,4.00
2023-05-10T15:45:48.000Z,3.80
2023-05-10T15:48:14.993Z,4.50
2023-05-10T15:50:41.842Z,3.30
2023-05-10T15:53:08.801Z,3.60
2023-05-10T15:55:36.158Z,3.50
2023-05-10T15:58:03.199Z,3.80
2023-05-10T16:00:30.616Z,4.00
2023-05-10T16:02:57.612Z,3.80
2023-05-10T16:05:24.843Z,4.10
2023-05-10T16:07:51.725Z,3.80
2023-05-10T16:10:19.058Z,4.20
2023-05-10T16:12:46.025Z,3.60
2023-05-10T16:15:12.924Z,3.50
2023-05-10T16:17:40.072Z,4.10
2023-05-10T16:20:07.669Z,3.40
2023-05-10T16:22:34.878Z,3.70
2023-05-10T16:25:01.946Z,3.80
2023-05-10T16:27:30.373Z,3.80
2023-05-10T16:29:57.302Z,3.60
2023-05-10T16:32:24.428Z,4.60
2023-05-10T16:34:53.354Z,4.20
2023-05-10T16:37:20.196Z,4.10
2023-05-10T16:39:47.037Z,4.10
2023-05-10T16:42:13.998Z,3.90
2023-05-10T16:44:40.956Z,4.10
2023-05-10T16:47:07.908Z,3.90
2023-05-10T16:49:36.433Z,4.30
2023-05-10T16:52:03.509Z,6.30
2023-05-10T16:54:31.131Z,6.10
2023-05-10T16:56:57.955Z,5.60
2023-05-10T16:59:24.818Z,6.20
2023-05-10T17:01:54.306Z,5.80
2023-05-10T17:04:23.890Z,6.50
2023-05-10T17:06:51.785Z,6.30
2023-05-10T17:09:20.331Z,7.20
2023-05-10T17:11:47.376Z,6.10
2023-05-10T17:14:14.263Z,6.40
2023-05-10T17:16:41.873Z,6.10
2023-05-10T17:19:09.326Z,6.40
2023-05-10T17:21:36.834Z,6.30
2023-05-10T17:24:03.825Z,7.00
2023-05-10T17:26:30.746Z,6.60
2023-05-10T17:28:57.911Z,6.00
2023-05-10T17:31:24.923Z,6.70
2023-05-10T17:33:51.974Z,6.50
2023-05-10T17:36:19.208Z,7.60
2023-05-10T17:38:46.072Z,9.50
2023-05-10T17:41:14.305Z,13.80
2023-05-10T17:43:43.799Z,14.30
2023-05-10T17:46:11.401Z,12.30
2023-05-10T17:48:38.607Z,13.30
2023-05-10T17:51:06.670Z,14.70
2023-05-10T17:53:35.143Z,16.00
2023-05-10T17:56:02.893Z,15.40
2023-05-10T17:58:30.465Z,13.40
2023-05-10T18:00:57.755Z,11.20
2023-05-10T18:03:24.850Z,10.90
2023-05-10T18:05:51.808Z,9.60
2023-05-10T18:08:22.822Z,9.40
2023-05-10T18:10:49.769Z,11.80
2023-05-10T18:13:16.966Z,12.70
2023-05-10T18:15:43.900Z,15.30
2023-05-10T18:18:11.267Z,15.50
2023-05-10T18:20:39.134Z,17.90
2023-05-10T18:23:06.469Z,16.00
2023-05-10T18:25:33.704Z,14.30
2023-05-10T18:28:00.603Z,13.10
2023-05-10T18:30:27.749Z,10.90
2023-05-10T18:32:55.750Z,11.90
2023-05-10T18:35:23.062Z,15.60
2023-05-10T18:37:52.643Z,16.30
2023-05-10T18:40:19.721Z,14.20
2023-05-10T18:42:46.862Z,13.90
2023-05-10T18:45:14.040Z,13.20
2023-05-10T18:47:40.958Z,12.80
2023-05-10T18:50:08.283Z,12.10
2023-05-10T18:52:36.869Z,10.90
2023-05-10T18:55:05.234Z,11.40
2023-05-10T18:57:32.111Z,10.20
2023-05-10T18:59:58.962Z,11.60
2023-05-10T19:02:26.861Z,13.20
2023-05-10T19:04:53.933Z,14.10
2023-05-10T19:07:21.056Z,15.50
2023-05-10T19:09:47.993Z,17.20
2023-05-10T19:12:14.916Z,22.30
2023-05-10T19:14:41.785Z,37.40
2023-05-10T19:17:08.828Z,49.30
2023-05-10T19:19:37.752Z,52.50
2023-05-10T19:22:04.717Z,52.90
2023-05-10T19:24:34.362Z,44.40
2023-05-10T19:27:02.949Z,32.30
2023-05-10T19:29:30.005Z,23.60
2023-05-10T19:31:57.420Z,21.70
2023-05-10T19:34:24.683Z,16.00
2023-05-10T19:36:51.640Z,13.40
2023-05-10T19:39:20.044Z,12.00
2023-05-10T19:41:47.268Z,10.30
2023-05-10T19:44:14.537Z,9.60
2023-05-10T19:46:41.548Z,9.90
2023-05-10T19:49:08.466Z,9.50
2023-05-10T19:51:35.431Z,10.30
2023-05-10T19:54:02.701Z,12.00
2023-05-10T19:56:30.062Z,19.70
2023-05-10T19:58:57.971Z,23.40
2023-05-10T20:01:24.981Z,24.40
2023-05-10T20:03:52.227Z,32.90
2023-05-10T20:06:19.260Z,34.70
2023-05-10T20:08:46.243Z,31.00
2023-05-10T20:11:13.199Z,25.40
2023-05-10T20:13:40.209Z,22.40
2023-05-10T20:16:07.297Z,19.70
2023-05-10T20:18:34.927Z,17.30
2023-05-10T20:21:01.846Z,13.20
2023-05-10T20:23:28.818Z,11.00
2023-05-10T20:25:55.755Z,11.80
2023-05-10T20:28:23.363Z,11.50
2023-05-10T20:30:54.318Z,11.00
2023-05-10T20:33:21.800Z,9.90
2023-05-10T20:35:50.154Z,10.70
2023-05-10T20:38:18.285Z,11.30
2023-05-10T20:40:45.568Z,10.30
2023-05-10T20:43:12.727Z,10.80
2023-05-10T20:45:39.661Z,11.10
2023-05-10T20:48:06.690Z,10.80
2023-05-10T20:50:34.539Z,10.30
2023-05-10T20:53:01.421Z,10.10
2023-05-10T20:55:28.632Z,11.70
2023-05-10T20:57:55.616Z,11.30
2023-05-10T21:00:23.513Z,11.60
2023-05-10T21:02:53.600Z,13.50
2023-05-10T21:05:20.622Z,12.40
2023-05-10T21:07:47.510Z,12.30
2023-05-10T21:10:14.384Z,10.50
2023-05-10T21:12:41.228Z,11.50
2023-05-10T21:15:08.803Z,10.00
2023-05-10T21:17:35.803Z,10.60
2023-05-10T21:20:02.779Z,12.20
2023-05-10T21:22:29.658Z,14.40
2023-05-10T21:24:56.502Z,15.10
2023-05-10T21:27:23.301Z,14.40
2023-05-10T21:29:50.183Z,11.60
2023-05-10T21:32:17.049Z,13.40
2023-05-10T21:34:43.937Z,11.60
2023-05-10T21:37:10.958Z,11.30
2023-05-10T21:39:38.005Z,12.60
2023-05-10T21:42:05.026Z,12.30
2023-05-10T21:44:32.203Z,15.00
2023-05-10T21:46:59.206Z,12.90
2023-05-10T21:49:26.307Z,12.90
2023-05-10T21:51:53.210Z,13.00
2023-05-10T21:54:20.139Z,12.80
2023-05-10T21:56:47.377Z,11.70
2023-05-10T21:59:14.441Z,10.60
2023-05-10T22:01:41.952Z,11.50
2023-05-10T22:04:08.880Z,11.20
2023-05-10T22:06:35.910Z,11.30
2023-05-10T22:09:02.866Z,11.10
2023-05-10T22:11:29.866Z,11.50
2023-05-10T22:13:56.736Z,11.80
2023-05-10T22:16:24.546Z,11.80
2023-05-10T22:18:51.516Z,11.40
2023-05-10T22:21:18.419Z,11.00
2023-05-10T22:23:45.263Z,12.50
2023-05-10T22:26:12.088Z,12.60
2023-05-10T22:28:38.909Z,11.30
2023-05-10T22:31:10.577Z,11.30
2023-05-10T22:36:05.005Z,9.80
2023-05-10T22:38:32.004Z,11.40
2023-05-10T22:40:58.856Z,9.80
2023-05-10T22:43:25.742Z,12.90
2023-05-10T22:45:55.623Z,13.90
2023-05-10T22:48:22.743Z,19.20
2023-05-10T22:50:49.779Z,19.60
2023-05-10T22:53:16.703Z,22.80
2023-05-10T22:55:43.635Z,27.60
2023-05-10T22:58:10.654Z,31.30
2023-05-10T23:00:37.953Z,25.30
2023-05-10T23:03:05.666Z,22.60
2023-05-10T23:05:32.667Z,23.10
2023-05-10T23:07:59.508Z,23.70
2023-05-10T23:10:26.888Z,23.00
2023-05-10T23:12:53.818Z,21.00
2023-05-10T23:15:20.677Z,21.00
2023-05-10T23:17:47.876Z,20.10
2023-05-10T23:20:14.830Z,15.50
2023-05-10T23:22:41.692Z,15.10
2023-05-10T23:25:09.001Z,15.60
2023-05-10T23:27:35.814Z,15.00
2023-05-10T23:30:03.173Z,14.00
2023-05-10T23:32:30.020Z,14.00
2023-05-10T23:34:57.065Z,14.60
2023-05-10T23:37:23.914Z,14.10
2023-05-10T23:39:50.830Z,13.20
2023-05-10T23:42:17.702Z,13.50
2023-05-10T23:44:44.622Z,14.60
2023-05-10T23:47:11.429Z,13.70
2023-05-10T23:49:38.445Z,12.50
2023-05-10T23:52:05.343Z,13.50
2023-05-10T23:54:32.167Z,14.30
2023-05-10T23:56:58.964Z,14.80
2023-05-10T23:59:26.018Z,14.30
